Time;durP1;ratioP1;P1;durP2;ratioP2;P2;SDS_P1;SDS_P2;PMS_P1;PMS_P2;Temp;Humidity;BMP_temperature;BMP_pressure;BME280_temperature;BME280_humidity;BME280_pressure;Samples;Min_cycle;Max_cycle;Signal;HPM_P1;HPM_P2
2021/06/18 00:00:55;;;;;;;58.53;2.80;;;20.10;1.00;;;;;;5034390;28;20532;-68
2021/06/18 00:03:22;;;;;;;58.90;3.67;;;20.10;1.00;;;;;;5034343;28;20446;-68
2021/06/18 00:05:49;;;;;;;58.53;2.60;;;20.10;1.00;;;;;;5034192;28;21002;-68
2021/06/18 00:08:17;;;;;;;58.67;2.70;;;20.00;1.00;;;;;;5034279;28;20469;-68
2021/06/18 00:10:44;;;;;;;59.60;3.10;;;20.00;1.00;;;;;;5034183;28;20536;-68
2021/06/18 00:13:11;;;;;;;58.57;2.67;;;19.90;1.00;;;;;;5033954;28;20487;-68
2021/06/18 00:15:38;;;;;;;58.70;2.70;;;19.90;1.00;;;;;;5033985;28;20482;-68
2021/06/18 00:18:05;;;;;;;59.43;3.37;;;19.80;1.00;;;;;;5033922;28;20485;-68
2021/06/18 00:20:32;;;;;;;58.70;2.80;;;19.60;1.00;;;;;;5034307;28;20532;-68
2021/06/18 00:22:59;;;;;;;58.17;3.10;;;19.50;1.00;;;;;;5034078;28;20532;-68
2021/06/18 00:25:27;;;;;;;58.57;2.50;;;19.50;1.00;;;;;;5033949;28;20481;-68
2021/06/18 00:27:56;;;;;;;58.40;2.53;;;19.30;1.00;;;;;;5033502;28;20445;-68
2021/06/18 00:30:23;;;;;;;59.00;2.80;;;19.30;1.00;;;;;;5033939;28;20457;-68
2021/06/18 00:32:50;;;;;;;58.60;2.90;;;19.20;1.00;;;;;;5033999;28;20524;-68
2021/06/18 00:35:17;;;;;;;58.77;3.50;;;19.10;1.00;;;;;;5033850;28;20533;-68
2021/06/18 00:37:44;;;;;;;58.77;2.67;;;19.10;1.00;;;;;;5033443;28;20492;-68
2021/06/18 00:40:11;;;;;;;58.63;2.80;;;19.00;1.00;;;;;;5033576;28;20473;-68
2021/06/18 00:42:40;;;;;;;58.57;2.80;;;19.00;1.00;;;;;;5033861;28;20949;-68
2021/06/18 00:45:08;;;;;;;58.67;3.27;;;19.00;1.00;;;;;;5033729;28;20810;-68
2021/06/18 00:47:39;;;;;;;58.70;2.73;;;18.90;1.00;;;;;;5033476;28;20452;-68
2021/06/18 00:50:06;;;;;;;58.90;2.80;;;18.90;1.00;;;;;;5033598;28;20836;-68
2021/06/18 00:52:33;;;;;;;58.47;2.83;;;18.90;1.00;;;;;;5033297;28;20481;-68
2021/06/18 00:55:01;;;;;;;59.60;3.00;;;18.90;1.00;;;;;;5033197;28;20966;-68
2021/06/18 00:57:29;;;;;;;64.80;5.67;;;18.80;1.00;;;;;;5033221;28;20453;-68
2021/06/18 00:59:57;;;;;;;58.90;3.07;;;18.80;1.00;;;;;;5033177;28;20571;-68
2021/06/18 01:02:24;;;;;;;58.63;2.90;;;18.80;1.00;;;;;;5033247;28;20448;-68
2021/06/18 01:04:51;;;;;;;59.83;3.47;;;18.80;1.00;;;;;;5033129;28;20540;-68
2021/06/18 01:07:23;;;;;;;58.77;2.97;;;18.80;1.00;;;;;;5032864;28;20543;-68
2021/06/18 01:10:04;;;;;;;58.63;2.80;;;18.80;1.00;;;;;;5032341;28;20516;-69
2021/06/18 01:12:37;;;;;;;58.80;3.13;;;18.80;1.00;;;;;;5033039;28;20596;-68
2021/06/18 01:15:11;;;;;;;58.40;2.50;;;18.80;1.00;;;;;;5033065;28;20545;-68
2021/06/18 01:17:46;;;;;;;58.57;2.80;;;18.80;1.00;;;;;;5032804;28;20548;-69
2021/06/18 01:20:44;;;;;;;58.60;2.90;;;18.70;1.00;;;;;;5033518;28;20843;-67
2021/06/18 01:23:22;;;;;;;58.27;2.50;;;18.70;1.00;;;;;;5018666;28;20539;-68
2021/06/18 01:25:52;;;;;;;58.07;2.90;;;18.60;1.00;;;;;;5032857;28;20523;-68
2021/06/18 01:28:41;;;;;;;58.67;3.00;;;18.60;1.00;;;;;;5032250;28;20506;-68
2021/06/18 01:31:10;;;;;;;60.20;3.53;;;18.60;1.00;;;;;;5032700;28;20448;-68
2021/06/18 01:33:39;;;;;;;58.27;2.60;;;18.60;1.00;;;;;;5032735;28;20928;-68
2021/06/18 01:36:12;;;;;;;58.57;2.80;;;18.60;1.00;;;;;;5032492;28;20449;-68
2021/06/18 01:38:40;;;;;;;58.90;2.50;;;18.60;1.00;;;;;;5032390;28;20472;-68
2021/06/18 01:41:12;;;;;;;58.57;2.47;;;18.50;1.00;;;;;;5032606;28;20482;-68
2021/06/18 01:43:42;;;;;;;58.67;3.00;;;18.40;1.00;;;;;;5032611;28;20459;-68
2021/06/18 01:46:13;;;;;;;58.57;2.80;;;18.40;1.00;;;;;;5032319;28;20541;-68
2021/06/18 01:48:42;;;;;;;58.80;3.03;;;18.30;1.00;;;;;;5032329;28;20468;-68
2021/06/18 01:51:12;;;;;;;58.70;2.50;;;18.30;1.00;;;;;;5032167;28;20448;-68
2021/06/18 01:53:42;;;;;;;59.10;3.03;;;18.30;1.00;;;;;;5032358;28;20599;-68
2021/06/18 01:56:12;;;;;;;58.60;2.50;;;18.20;1.00;;;;;;5032191;28;20460;-68
2021/06/18 01:58:43;;;;;;;58.30;2.70;;;18.20;1.00;;;;;;5032196;28;20935;-68
2021/06/18 02:01:10;;;;;;;58.47;2.73;;;18.20;1.00;;;;;;5032125;28;20539;-69
2021/06/18 02:03:38;;;;;;;58.63;3.50;;;18.20;1.00;;;;;;5031901;28;20535;-68
2021/06/18 02:06:06;;;;;;;58.93;3.00;;;18.20;1.00;;;;;;5031865;28;20960;-68
2021/06/18 02:08:33;;;;;;;58.37;2.67;;;18.10;1.00;;;;;;5031989;28;20984;-68
2021/06/18 02:11:03;;;;;;;58.37;3.10;;;18.10;1.00;;;;;;5031917;28;20543;-68
2021/06/18 02:13:31;;;;;;;58.63;2.73;;;18.00;1.00;;;;;;5032163;28;21126;-68
2021/06/18 02:16:01;;;;;;;59.50;2.80;;;18.00;1.00;;;;;;5031872;28;20455;-68
2021/06/18 02:18:30;;;;;;;58.33;2.70;;;18.00;1.00;;;;;;5031588;28;20566;-68
2021/06/18 02:20:59;;;;;;;58.37;2.57;;;18.00;1.00;;;;;;5031798;28;20548;-68
2021/06/18 02:23:29;;;;;;;58.33;2.90;;;18.00;1.00;;;;;;5031950;28;20447;-68
2021/06/18 02:25:58;;;;;;;58.80;2.90;;;18.00;1.00;;;;;;5031725;28;20494;-69
2021/06/18 02:28:26;;;;;;;58.77;3.00;;;17.90;1.00;;;;;;5031635;28;20471;-68
2021/06/18 02:30:54;;;;;;;59.70;3.47;;;17.90;1.00;;;;;;5031568;28;20821;-68
2021/06/18 02:33:22;;;;;;;58.20;2.80;;;17.80;1.00;;;;;;5031612;28;21075;-68
2021/06/18 02:35:50;;;;;;;58.67;2.90;;;17.80;1.00;;;;;;5031623;28;20484;-68
2021/06/18 02:38:18;;;;;;;58.87;3.07;;;17.80;1.00;;;;;;5031488;28;20547;-68
2021/06/18 02:40:47;;;;;;;58.73;2.67;;;17.70;1.00;;;;;;5031591;28;20447;-68
2021/06/18 02:43:14;;;;;;;59.10;2.93;;;17.70;1.00;;;;;;5031425;28;20847;-68
2021/06/18 02:45:41;;;;;;;59.57;3.43;;;17.60;1.00;;;;;;5031606;28;20538;-68
2021/06/18 02:48:14;;;;;;;59.30;3.23;;;17.60;1.00;;;;;;5031478;28;20456;-68
2021/06/18 02:50:47;;;;;;;58.27;2.70;;;17.60;1.00;;;;;;5031755;28;20450;-68
2021/06/18 02:53:25;;;;;;;58.77;2.67;;;17.60;1.00;;;;;;5031502;28;20604;-68
2021/06/18 02:55:55;;;;;;;58.90;3.07;;;17.60;1.00;;;;;;5031220;28;20462;-68
2021/06/18 02:58:25;;;;;;;58.37;3.10;;;17.60;1.00;;;;;;5031063;28;21077;-68
2021/06/18 03:00:53;;;;;;;59.27;3.20;;;17.60;1.00;;;;;;5031565;28;20458;-68
2021/06/18 03:03:25;;;;;;;58.37;2.67;;;17.60;1.00;;;;;;5031569;28;20479;-68
2021/06/18 03:05:58;;;;;;;58.50;3.17;;;17.70;1.00;;;;;;5031781;28;20535;-68
2021/06/18 03:08:29;;;;;;;58.77;3.00;;;17.70;1.00;;;;;;5031269;28;20558;-68
2021/06/18 03:10:58;;;;;;;58.57;3.10;;;17.70;1.00;;;;;;5031606;28;20452;-68
2021/06/18 03:13:28;;;;;;;59.57;3.77;;;17.60;1.00;;;;;;5031399;28;20574;-68
2021/06/18 03:15:56;;;;;;;58.37;2.60;;;17.60;1.00;;;;;;5031404;28;20882;-69
2021/06/18 03:18:25;;;;;;;58.77;3.00;;;17.50;1.00;;;;;;5031011;28;20559;-68
2021/06/18 03:20:56;;;;;;;58.47;2.60;;;17.50;1.00;;;;;;5031095;28;20458;-68
2021/06/18 03:23:24;;;;;;;58.77;2.70;;;17.60;1.00;;;;;;5031541;28;20470;-68
2021/06/18 03:25:51;;;;;;;58.27;3.00;;;17.50;1.00;;;;;;5031424;28;20454;-69
2021/06/18 03:28:19;;;;;;;58.73;2.80;;;17.60;1.00;;;;;;5031053;28;20475;-68
2021/06/18 03:30:48;;;;;;;58.93;3.13;;;17.60;1.00;;;;;;5031294;28;20897;-68
2021/06/18 03:33:17;;;;;;;58.77;3.30;;;17.60;1.00;;;;;;5032417;28;20485;-69
2021/06/18 03:35:44;;;;;;;58.97;3.60;;;17.80;1.00;;;;;;5035258;28;20534;-68
2021/06/18 03:38:13;;;;;;;58.47;2.80;;;17.80;1.00;;;;;;5034851;28;20527;-68
2021/06/18 03:40:41;;;;;;;58.63;2.70;;;17.90;1.00;;;;;;5034882;28;20542;-68
2021/06/18 03:43:09;;;;;;;58.77;3.03;;;18.00;1.00;;;;;;5034708;28;20480;-69
2021/06/18 03:45:36;;;;;;;58.30;3.07;;;18.10;1.00;;;;;;5034703;28;20458;-68
2021/06/18 03:48:04;;;;;;;58.47;2.90;;;18.10;1.00;;;;;;5034263;28;20974;-68
2021/06/18 03:50:35;;;;;;;58.07;2.90;;;18.20;1.00;;;;;;5034709;28;20451;-68
2021/06/18 03:53:02;;;;;;;58.57;3.10;;;18.10;1.00;;;;;;5034468;28;20583;-68
2021/06/18 03:55:31;;;;;;;58.73;2.90;;;18.20;1.00;;;;;;5034523;28;20538;-68
2021/06/18 03:58:01;;;;;;;59.30;3.37;;;18.20;1.00;;;;;;5034230;28;20532;-68
2021/06/18 04:00:29;;;;;;;58.07;2.53;;;18.20;1.00;;;;;;5034187;28;20998;-68
2021/06/18 04:02:57;;;;;;;59.00;3.10;;;18.20;1.00;;;;;;5034578;28;20539;-67
2021/06/18 04:05:26;;;;;;;59.00;2.90;;;18.20;1.00;;;;;;5034244;28;20547;-68
2021/06/18 04:07:54;;;;;;;58.50;2.80;;;18.20;1.00;;;;;;5034097;28;20459;-68
2021/06/18 04:10:22;;;;;;;59.10;3.47;;;18.20;1.00;;;;;;5034179;28;20460;-68
2021/06/18 04:12:53;;;;;;;58.70;2.90;;;18.20;1.00;;;;;;5034420;28;20452;-68
2021/06/18 04:15:22;;;;;;;58.60;2.97;;;18.20;1.00;;;;;;5034436;28;20460;-68
2021/06/18 04:17:49;;;;;;;60.60;3.30;;;18.20;1.00;;;;;;5033854;28;20945;-68
2021/06/18 04:20:20;;;;;;;58.37;2.60;;;18.20;1.00;;;;;;5034086;28;20474;-68
2021/06/18 04:22:47;;;;;;;58.33;2.90;;;18.10;1.00;;;;;;5033933;28;20895;-68
2021/06/18 04:25:14;;;;;;;59.00;3.60;;;18.10;1.00;;;;;;5033960;28;20539;-68
2021/06/18 04:27:41;;;;;;;58.50;2.60;;;18.10;1.00;;;;;;5033957;28;20919;-69
2021/06/18 04:30:13;;;;;;;58.10;2.73;;;18.10;1.00;;;;;;5033962;28;20503;-69
2021/06/18 04:32:40;;;;;;;58.27;2.70;;;18.20;1.00;;;;;;5033786;28;20531;-69
2021/06/18 04:35:08;;;;;;;58.60;2.60;;;18.20;1.00;;;;;;5033768;28;20492;-68
2021/06/18 04:37:36;;;;;;;58.50;2.70;;;18.20;1.00;;;;;;5033500;28;20869;-68
2021/06/18 04:40:04;;;;;;;58.37;2.70;;;18.20;1.00;;;;;;5033468;28;20504;-68
2021/06/18 04:42:31;;;;;;;57.93;2.50;;;18.30;1.00;;;;;;5033758;28;20542;-68
2021/06/18 04:44:58;;;;;;;58.50;2.80;;;18.30;1.00;;;;;;5033701;28;20493;-69
2021/06/18 04:47:26;;;;;;;58.37;2.80;;;18.30;1.00;;;;;;5033305;28;20459;-68
2021/06/18 04:49:54;;;;;;;58.80;3.00;;;18.30;1.00;;;;;;5033473;28;20813;-68
2021/06/18 04:52:21;;;;;;;59.40;3.00;;;18.30;1.00;;;;;;5033474;28;20459;-68
2021/06/18 04:54:54;;;;;;;58.10;2.67;;;18.40;1.00;;;;;;5033442;28;20595;-69
2021/06/18 04:57:21;;;;;;;59.00;3.10;;;18.40;1.00;;;;;;5033318;28;20547;-68
2021/06/18 04:59:47;;;;;;;58.70;2.70;;;18.50;1.00;;;;;;5033321;28;20483;-69
2021/06/18 05:02:14;;;;;;;58.13;2.70;;;18.50;1.00;;;;;;5033260;28;20887;-68
2021/06/18 05:04:42;;;;;;;57.97;2.60;;;18.50;1.00;;;;;;5031651;28;20480;-68
2021/06/18 05:07:09;;;;;;;58.70;2.97;;;18.60;1.00;;;;;;5033176;28;20448;-68
2021/06/18 05:09:36;;;;;;;58.03;2.60;;;18.60;1.00;;;;;;5033241;28;20468;-68
2021/06/18 05:12:04;;;;;;;58.57;2.80;;;18.70;1.00;;;;;;5033012;28;20484;-68
2021/06/18 05:14:30;;;;;;;57.97;2.80;;;18.70;1.00;;;;;;5033169;28;20928;-68
2021/06/18 05:16:57;;;;;;;59.10;3.33;;;18.70;1.00;;;;;;5032794;28;20490;-68
2021/06/18 05:19:24;;;;;;;58.70;3.53;;;18.70;1.00;;;;;;5032849;28;20551;-68
2021/06/18 05:21:52;;;;;;;58.30;2.73;;;18.80;1.00;;;;;;5032698;28;20499;-69
2021/06/18 05:24:19;;;;;;;58.60;2.80;;;18.80;1.00;;;;;;5033115;28;20454;-68
2021/06/18 05:26:46;;;;;;;58.77;3.60;;;18.90;1.00;;;;;;5033085;28;20534;-68
2021/06/18 05:29:13;;;;;;;58.80;2.87;;;18.90;1.00;;;;;;5032755;28;20503;-68
2021/06/18 05:31:40;;;;;;;57.70;2.63;;;19.00;1.00;;;;;;5032643;28;20449;-68
2021/06/18 05:34:06;;;;;;;57.93;2.83;;;19.10;1.00;;;;;;5033095;28;20516;-69
2021/06/18 05:36:33;;;;;;;59.87;3.20;;;19.20;1.00;;;;;;5032345;28;20496;-69
2021/06/18 05:39:01;;;;;;;58.57;3.30;;;19.20;1.00;;;;;;5032650;28;20476;-68
2021/06/18 05:41:28;;;;;;;58.17;2.30;;;19.30;1.00;;;;;;5032425;28;20485;-68
2021/06/18 05:43:55;;;;;;;58.40;2.83;;;19.30;1.00;;;;;;5032685;28;20532;-68
2021/06/18 05:46:22;;;;;;;58.60;3.30;;;19.40;1.00;;;;;;5032299;28;20535;-68
2021/06/18 05:48:49;;;;;;;58.90;2.70;;;19.50;1.00;;;;;;5032254;28;20909;-68
2021/06/18 05:51:15;;;;;;;58.70;3.40;;;19.60;1.00;;;;;;5032429;28;20459;-68
2021/06/18 05:53:42;;;;;;;58.30;2.50;;;19.70;1.00;;;;;;5032342;28;20484;-68
2021/06/18 05:56:10;;;;;;;59.00;2.80;;;19.80;1.00;;;;;;5031530;28;20540;-68
2021/06/18 05:58:37;;;;;;;58.20;2.40;;;19.90;1.00;;;;;;5031971;28;20573;-69
2021/06/18 06:01:04;;;;;;;58.40;2.60;;;20.00;1.00;;;;;;5032142;28;20485;-69
2021/06/18 06:03:31;;;;;;;58.23;2.50;;;20.10;1.00;;;;;;5032029;28;20448;-69
2021/06/18 06:05:58;;;;;;;58.60;3.27;;;20.20;1.00;;;;;;5031968;28;20958;-69
2021/06/18 06:08:25;;;;;;;58.60;2.90;;;20.30;1.00;;;;;;5032131;28;20487;-69
2021/06/18 06:10:52;;;;;;;61.13;2.80;;;20.50;1.00;;;;;;5032200;28;20446;-69
2021/06/18 06:13:21;;;;;;;58.27;2.90;;;20.50;1.00;;;;;;5031994;28;20545;-69
2021/06/18 06:15:48;;;;;;;59.17;3.97;;;20.70;1.00;;;;;;5031606;28;21036;-69
2021/06/18 06:18:15;;;;;;;58.90;3.10;;;20.80;1.00;;;;;;5031856;28;20468;-68
2021/06/18 06:20:43;;;;;;;59.73;3.43;;;20.90;1.00;;;;;;5031980;28;20482;-66
2021/06/18 06:23:10;;;;;;;58.60;2.87;;;21.00;1.00;;;;;;5031718;28;20958;-69
2021/06/18 06:25:38;;;;;;;58.47;2.80;;;21.10;1.00;;;;;;5031878;28;20530;-69
2021/06/18 06:28:05;;;;;;;58.80;3.03;;;21.20;1.00;;;;;;5031436;28;20939;-69
2021/06/18 06:30:33;;;;;;;58.67;2.73;;;21.30;1.00;;;;;;5032060;28;20505;-67
2021/06/18 06:33:00;;;;;;;58.43;2.93;;;21.40;1.00;;;;;;5031889;28;20533;-67
2021/06/18 06:35:27;;;;;;;59.30;3.10;;;21.50;1.00;;;;;;5031783;28;20873;-67
2021/06/18 06:37:55;;;;;;;58.37;2.70;;;21.60;1.00;;;;;;5031469;28;20953;-67
2021/06/18 06:40:22;;;;;;;58.13;2.70;;;21.80;1.00;;;;;;5031631;28;20449;-67
2021/06/18 06:42:52;;;;;;;58.67;2.93;;;21.90;1.00;;;;;;5031414;28;20961;-68
2021/06/18 06:45:19;;;;;;;58.83;3.07;;;22.00;1.00;;;;;;5031877;28;20540;-67
2021/06/18 06:47:49;;;;;;;59.00;3.93;;;22.20;1.00;;;;;;5031551;28;20563;-67
2021/06/18 06:50:16;;;;;;;59.33;3.20;;;22.30;1.00;;;;;;5031551;28;20924;-68
2021/06/18 06:52:43;;;;;;;59.10;3.53;;;22.40;1.00;;;;;;5031329;28;21040;-68
2021/06/18 06:55:11;;;;;;;58.57;2.50;;;22.60;1.00;;;;;;5030328;28;20591;-68
2021/06/18 06:57:39;;;;;;;58.47;2.73;;;22.70;1.00;;;;;;5031233;28;20488;-68
2021/06/18 07:00:07;;;;;;;59.90;3.07;;;22.80;1.00;;;;;;5031437;28;20563;-68
2021/06/18 07:02:33;;;;;;;58.30;2.80;;;22.90;1.00;;;;;;5031507;28;20532;-68
2021/06/18 07:05:02;;;;;;;58.80;3.00;;;23.10;1.00;;;;;;5031533;28;20443;-68
2021/06/18 07:07:29;;;;;;;58.50;3.20;;;23.20;1.00;;;;;;5031306;28;20929;-68
2021/06/18 07:09:55;;;;;;;57.93;2.60;;;23.30;1.00;;;;;;5035055;28;20475;-68
2021/06/18 07:12:22;;;;;;;58.37;2.70;;;23.40;1.00;;;;;;5035350;28;20542;-68
2021/06/18 07:14:49;;;;;;;58.40;2.70;;;23.50;1.00;;;;;;5035235;28;20568;-68
2021/06/18 07:17:16;;;;;;;58.90;3.17;;;23.60;1.00;;;;;;5034981;28;20453;-68
2021/06/18 07:19:43;;;;;;;58.30;2.80;;;23.70;1.00;;;;;;5035071;28;20473;-69
2021/06/18 07:22:11;;;;;;;58.40;3.10;;;23.80;1.00;;;;;;5034947;28;20936;-68
2021/06/18 07:24:38;;;;;;;58.47;2.80;;;24.00;1.00;;;;;;5034760;28;20448;-69
2021/06/18 07:27:05;;;;;;;58.10;2.60;;;24.10;1.00;;;;;;5034703;28;20545;-70
2021/06/18 07:29:32;;;;;;;59.67;3.13;;;24.30;1.00;;;;;;5035069;28;20905;-69
2021/06/18 07:31:59;;;;;;;58.50;2.63;;;24.40;1.00;;;;;;5034933;28;20852;-70
2021/06/18 07:34:26;;;;;;;58.30;2.80;;;24.50;1.00;;;;;;5034785;28;20574;-69
2021/06/18 07:36:53;;;;;;;58.57;3.10;;;24.70;1.00;;;;;;5034582;28;20604;-70
2021/06/18 07:39:21;;;;;;;58.27;2.90;;;24.70;1.00;;;;;;5034514;28;21006;-69
2021/06/18 07:41:48;;;;;;;58.07;2.40;;;24.80;1.00;;;;;;5034581;28;20983;-69
2021/06/18 07:44:15;;;;;;;58.10;2.20;;;24.90;1.00;;;;;;5034836;28;20530;-69
2021/06/18 07:46:42;;;;;;;58.17;2.43;;;25.00;1.00;;;;;;5034518;28;20532;-69
2021/06/18 07:49:09;;;;;;;58.70;2.90;;;25.10;1.00;;;;;;5034499;28;20555;-69
2021/06/18 07:51:36;;;;;;;57.93;2.27;;;25.20;1.00;;;;;;5034245;28;20927;-69
2021/06/18 07:54:03;;;;;;;58.17;2.50;;;25.30;1.00;;;;;;5034505;28;20740;-68
2021/06/18 07:56:34;;;;;;;58.20;2.60;;;25.30;1.00;;;;;;5034364;28;20558;-69
2021/06/18 07:59:01;;;;;;;58.30;2.53;;;25.50;1.00;;;;;;5034400;28;20483;-69
2021/06/18 08:01:28;;;;;;;58.07;2.50;;;25.60;1.00;;;;;;5034394;28;20452;-69
2021/06/18 08:03:56;;;;;;;57.97;2.47;;;25.60;1.00;;;;;;5034319;28;20539;-69
2021/06/18 08:06:23;;;;;;;58.27;2.60;;;25.70;1.00;;;;;;5033845;28;20453;-69
2021/06/18 08:08:50;;;;;;;58.60;2.70;;;25.90;1.00;;;;;;5034125;28;21059;-68
2021/06/18 08:11:17;;;;;;;58.17;2.30;;;26.00;1.00;;;;;;5034125;28;20950;-69
2021/06/18 08:13:45;;;;;;;58.67;2.97;;;26.10;1.00;;;;;;5034203;28;20528;-69
2021/06/18 08:16:12;;;;;;;57.87;2.60;;;26.20;1.00;;;;;;5033979;28;20484;-69
2021/06/18 08:18:39;;;;;;;58.70;2.80;;;26.40;1.00;;;;;;5033271;28;20909;-69
2021/06/18 08:21:09;;;;;;;58.90;3.27;;;26.50;1.00;;;;;;5033844;28;20485;-69
2021/06/18 08:23:36;;;;;;;58.03;2.67;;;26.60;1.00;;;;;;5033960;28;20808;-69
2021/06/18 08:26:03;;;;;;;58.70;3.07;;;26.70;1.00;;;;;;5033767;28;20542;-69
2021/06/18 08:28:30;;;;;;;60.50;4.50;;;26.90;1.00;;;;;;5033676;28;20489;-69
2021/06/18 08:30:58;;;;;;;58.10;2.40;;;26.90;1.00;;;;;;5033714;28;20450;-69
2021/06/18 08:33:25;;;;;;;58.70;2.60;;;27.00;1.00;;;;;;5033514;28;20498;-69
2021/06/18 08:35:52;;;;;;;58.10;2.33;;;27.10;1.00;;;;;;5033696;28;20483;-69
2021/06/18 08:38:19;;;;;;;60.63;4.27;;;27.20;1.00;;;;;;5033537;28;20509;-69
2021/06/18 08:40:46;;;;;;;58.07;2.20;;;27.40;1.00;;;;;;5033643;28;20453;-69
2021/06/18 08:43:13;;;;;;;57.90;2.30;;;27.50;1.00;;;;;;5021567;28;20452;-69
2021/06/18 08:45:40;;;;;;;57.90;2.40;;;27.60;1.00;;;;;;5013769;28;20453;-69
2021/06/18 08:48:08;;;;;;;58.40;2.90;;;27.70;1.00;;;;;;5012827;28;20479;-69
2021/06/18 08:50:36;;;;;;;58.13;2.40;;;27.90;1.00;;;;;;5013566;28;21034;-69
2021/06/18 08:53:05;;;;;;;58.70;3.63;;;28.00;1.00;;;;;;5013757;28;20883;-69
2021/06/18 08:55:33;;;;;;;60.10;4.10;;;28.10;1.00;;;;;;5013564;28;20482;-69
2021/06/18 08:58:03;;;;;;;57.97;2.30;;;28.30;1.00;;;;;;5013370;28;20536;-69
2021/06/18 09:00:31;;;;;;;58.00;2.40;;;28.20;1.00;;;;;;5013334;28;20492;-69
2021/06/18 09:02:58;;;;;;;58.23;3.10;;;28.30;1.00;;;;;;5013352;28;20442;-69
2021/06/18 09:05:27;;;;;;;58.70;2.80;;;28.50;1.00;;;;;;5013430;28;20866;-69
2021/06/18 09:07:59;;;;;;;58.87;3.73;;;28.30;1.00;;;;;;5013357;28;20450;-69
2021/06/18 09:10:34;;;;;;;58.27;2.77;;;28.60;1.00;;;;;;5013356;28;20961;-69
2021/06/18 09:13:20;;;;;;;58.40;2.90;;;28.70;1.00;;;;;;5013541;28;20445;-67
2021/06/18 09:15:51;;;;;;;58.60;3.70;;;28.80;1.00;;;;;;5013300;28;20486;-67
2021/06/18 09:18:26;;;;;;;57.77;2.30;;;29.00;1.00;;;;;;5012926;28;21021;-67
2021/06/18 09:20:55;;;;;;;58.67;3.03;;;29.00;1.00;;;;;;5013257;28;20816;-68
2021/06/18 09:23:24;;;;;;;57.70;2.67;;;29.20;1.00;;;;;;5013178;28;20450;-67
2021/06/18 09:26:18;;;;;;;58.80;2.47;;;29.30;1.00;;;;;;5013242;28;20445;-67
2021/06/18 09:29:02;;;;;;;62.17;3.30;;;29.50;1.00;;;;;;5012945;28;20573;-67
2021/06/18 09:31:31;;;;;;;58.20;2.70;;;29.60;1.00;;;;;;5011887;28;20894;-67
2021/06/18 09:33:58;;;;;;;57.67;2.47;;;29.60;1.00;;;;;;5013065;28;20533;-67
2021/06/18 09:36:25;;;;;;;58.00;2.70;;;29.70;1.00;;;;;;5012550;28;21025;-67
2021/06/18 09:38:55;;;;;;;58.97;3.67;;;29.90;1.00;;;;;;5012773;28;20549;-67
2021/06/18 09:41:31;;;;;;;57.97;2.33;;;30.10;1.00;;;;;;5013000;28;20450;-67
2021/06/18 09:43:59;;;;;;;57.87;2.30;;;30.30;1.00;;;;;;5012763;28;20640;-68
2021/06/18 09:46:41;;;;;;;57.83;2.50;;;30.40;1.00;;;;;;5012831;28;20443;-68
2021/06/18 09:49:08;;;;;;;58.40;3.10;;;30.60;1.00;;;;;;5012871;28;20562;-68
2021/06/18 09:51:53;;;;;;;58.20;2.77;;;30.70;1.00;;;;;;5012783;28;20537;-68
2021/06/18 09:54:20;;;;;;;59.37;3.60;;;30.80;1.00;;;;;;5012967;28;20457;-68
2021/06/18 09:56:49;;;;;;;58.67;2.93;;;31.00;1.00;;;;;;5012294;28;20478;-68
2021/06/18 09:59:22;;;;;;;57.87;2.77;;;31.20;1.00;;;;;;5012818;28;20486;-68
2021/06/18 10:01:53;;;;;;;57.70;2.40;;;31.30;1.00;;;;;;5012678;28;20542;-68
2021/06/18 10:04:23;;;;;;;58.57;3.50;;;31.30;1.00;;;;;;5012679;28;20450;-68
2021/06/18 10:06:50;;;;;;;57.77;2.80;;;31.30;1.00;;;;;;5013204;28;20446;-68
2021/06/18 10:09:18;;;;;;;59.13;3.77;;;31.50;1.00;;;;;;5012599;28;20880;-68
2021/06/18 10:11:45;;;;;;;59.00;4.10;;;31.70;1.00;;;;;;5012406;28;20514;-68
2021/06/18 10:14:15;;;;;;;58.50;3.73;;;31.80;1.00;;;;;;5012359;28;20500;-68
2021/06/18 10:16:43;;;;;;;58.20;2.93;;;32.00;1.00;;;;;;5012073;28;20584;-68
2021/06/18 10:19:10;;;;;;;57.77;2.50;;;32.20;1.00;;;;;;5012569;28;20472;-69
2021/06/18 10:21:48;;;;;;;57.57;2.47;;;32.40;1.00;;;;;;5011886;28;20455;-68
2021/06/18 10:24:17;;;;;;;58.10;2.63;;;32.80;1.00;;;;;;5012516;28;20477;-69
2021/06/18 10:26:49;;;;;;;57.77;2.70;;;34.70;1.00;;;;;;5012248;28;20446;-68
2021/06/18 10:29:30;;;;;;;58.00;3.13;;;34.70;1.00;;;;;;5012067;28;20462;-68
2021/06/18 10:31:57;;;;;;;57.80;2.50;;;36.00;1.00;;;;;;5011937;28;20496;-68
2021/06/18 10:34:38;;;;;;;57.43;2.53;;;37.20;1.00;;;;;;5011977;28;20460;-68
2021/06/18 10:37:19;;;;;;;58.10;3.33;;;38.30;1.00;;;;;;5011950;28;20843;-69
2021/06/18 10:39:51;;;;;;;57.50;2.90;;;39.00;1.00;;;;;;5011989;28;20990;-68
2021/06/18 10:42:18;;;;;;;57.27;2.90;;;39.60;1.00;;;;;;5011666;28;20453;-68
2021/06/18 10:44:49;;;;;;;57.30;3.17;;;40.40;1.00;;;;;;5012273;28;20537;-69
2021/06/18 10:47:56;;;;;;;57.80;2.93;;;40.90;1.00;;;;;;5012009;28;20553;-69
2021/06/18 10:50:50;;;;;;;58.07;2.90;;;41.30;1.00;;;;;;5011946;28;20953;-69
2021/06/18 10:53:22;;;;;;;57.07;2.90;;;42.10;1.00;;;;;;5012027;28;20450;-69
2021/06/18 10:55:50;;;;;;;56.37;2.70;;;42.40;1.00;;;;;;5011852;28;20490;-69
2021/06/18 10:58:17;;;;;;;58.27;4.20;;;42.70;1.00;;;;;;5011626;28;20840;-69
2021/06/18 11:00:46;;;;;;;56.57;2.20;;;42.90;1.00;;;;;;5011958;28;20446;-69
2021/06/18 11:03:15;;;;;;;56.33;2.60;;;43.20;1.00;;;;;;5011606;28;20537;-69
2021/06/18 11:05:46;;;;;;;56.70;2.33;;;43.30;1.00;;;;;;5011951;28;20446;-69
2021/06/18 11:08:18;;;;;;;58.30;2.93;;;43.70;1.00;;;;;;5011621;28;20537;-68
2021/06/18 11:10:45;;;;;;;56.93;2.60;;;43.70;1.00;;;;;;5011675;28;20942;-69
2021/06/18 11:13:12;;;;;;;56.87;3.00;;;43.80;1.00;;;;;;5011753;28;20449;-66
2021/06/18 11:15:45;;;;;;;58.57;2.60;;;44.10;1.00;;;;;;5011347;28;20490;-66
2021/06/18 11:18:18;;;;;;;57.50;2.90;;;44.00;1.00;;;;;;5011592;28;21018;-68
2021/06/18 11:20:53;;;;;;;57.40;2.40;;;44.10;1.00;;;;;;5011772;28;20469;-68
2021/06/18 11:23:22;;;;;;;56.33;2.63;;;43.90;1.00;;;;;;5011436;28;20544;-68
2021/06/18 11:26:00;;;;;;;57.20;2.87;;;44.20;1.00;;;;;;5011308;28;20456;-68
2021/06/18 11:28:45;;;;;;;56.57;2.43;;;44.50;1.00;;;;;;5010391;28;21060;-67
2021/06/18 11:31:17;;;;;;;57.20;2.70;;;44.60;1.00;;;;;;5010370;28;20453;-68
2021/06/18 11:33:58;;;;;;;57.17;2.93;;;44.40;1.00;;;;;;5010457;28;20504;-68
2021/06/18 11:36:52;;;;;;;57.80;3.07;;;44.20;1.00;;;;;;5010119;28;20572;-68
2021/06/18 11:39:24;;;;;;;56.27;2.20;;;44.20;1.00;;;;;;5011492;28;20462;-68
2021/06/18 11:42:00;;;;;;;56.80;2.40;;;44.60;1.00;;;;;;5011620;28;20541;-68
2021/06/18 11:44:28;;;;;;;56.80;2.67;;;44.90;1.00;;;;;;5011243;28;20457;-68
2021/06/18 11:46:57;;;;;;;57.17;2.87;;;45.50;1.00;;;;;;5011501;28;20442;-68
2021/06/18 11:49:36;;;;;;;56.13;2.10;;;45.70;1.00;;;;;;5011428;28;20473;-68
2021/06/18 11:52:09;;;;;;;56.60;2.20;;;45.50;1.00;;;;;;5011509;28;20485;-68
2021/06/18 11:54:39;;;;;;;56.80;2.37;;;45.40;1.00;;;;;;5013271;28;20446;-67
2021/06/18 11:57:27;;;;;;;56.80;2.30;;;45.30;1.00;;;;;;5014439;28;21010;-67
2021/06/18 11:59:59;;;;;;;56.70;2.30;;;45.10;1.00;;;;;;5014700;28;20899;-68
2021/06/18 12:02:32;;;;;;;58.70;2.43;;;45.00;1.00;;;;;;5014630;28;20847;-68
2021/06/18 12:05:09;;;;;;;56.60;2.53;;;45.20;1.00;;;;;;5014599;28;20454;-68
2021/06/18 12:07:37;;;;;;;56.67;2.37;;;45.40;1.00;;;;;;5014436;28;20469;-68
2021/06/18 12:10:06;;;;;;;56.50;2.60;;;45.70;1.00;;;;;;5014397;28;20473;-68
2021/06/18 12:12:47;;;;;;;56.90;2.80;;;45.80;1.00;;;;;;5014660;28;20829;-68
2021/06/18 12:15:18;;;;;;;56.40;2.60;;;46.20;1.00;;;;;;5014644;28;20450;-68
2021/06/18 12:17:54;;;;;;;56.60;2.50;;;46.20;1.00;;;;;;5014293;28;20450;-68
2021/06/18 12:20:34;;;;;;;56.80;2.50;;;46.30;1.00;;;;;;5014262;28;20458;-68
2021/06/18 12:23:01;;;;;;;56.27;2.17;;;46.00;1.00;;;;;;5014243;28;20481;-68
2021/06/18 12:25:29;;;;;;;56.80;2.20;;;45.70;1.00;;;;;;5014536;28;20512;-68
2021/06/18 12:27:58;;;;;;;56.53;2.03;;;45.70;1.00;;;;;;5013962;28;20485;-68
2021/06/18 12:30:29;;;;;;;57.10;2.70;;;46.10;1.00;;;;;;5014270;28;20546;-69
2021/06/18 12:32:57;;;;;;;58.37;3.83;;;46.70;1.00;;;;;;5013686;28;20516;-68
2021/06/18 12:35:34;;;;;;;57.30;3.27;;;47.00;1.00;;;;;;5013451;28;20540;-68
2021/06/18 12:38:03;;;;;;;56.57;2.80;;;47.00;1.00;;;;;;5013907;28;20618;-68
2021/06/18 12:40:31;;;;;;;56.93;2.97;;;47.20;1.00;;;;;;5014092;28;20416;-67
2021/06/18 12:43:05;;;;;;;56.90;2.70;;;47.40;1.00;;;;;;5013840;28;20860;-68
2021/06/18 12:45:32;;;;;;;56.97;2.70;;;47.50;1.00;;;;;;5013652;28;20535;-68
2021/06/18 12:48:12;;;;;;;56.97;2.70;;;47.20;1.00;;;;;;5013465;28;20446;-67
2021/06/18 12:50:42;;;;;;;56.70;3.17;;;47.00;1.00;;;;;;5014168;28;20445;-68
2021/06/18 12:53:10;;;;;;;57.20;3.17;;;47.00;1.00;;;;;;5013553;28;20452;-67
2021/06/18 12:55:39;;;;;;;56.50;2.50;;;47.30;1.00;;;;;;5013576;28;20515;-67
2021/06/18 12:58:09;;;;;;;57.07;2.57;;;47.50;1.00;;;;;;5013151;28;20540;-68
2021/06/18 13:00:47;;;;;;;56.60;2.67;;;47.40;1.00;;;;;;5013590;28;20482;-67